createdAt,value
2018-07-07T00:02:21.504Z,98.60
2018-07-07T00:04:48.667Z,99.10
2018-07-07T00:07:15.959Z,98.40
2018-07-07T00:09:43.162Z,97.80
2018-07-07T00:12:10.337Z,98.60
2018-07-07T00:14:37.469Z,98.80
2018-07-07T00:17:04.884Z,98.30
2018-07-07T00:19:32.160Z,98.20
2018-07-07T00:21:59.387Z,98.60
2018-07-07T00:24:26.649Z,99.10
2018-07-07T00:26:53.787Z,99.90
2018-07-07T00:29:20.928Z,99.90
2018-07-07T00:31:48.095Z,99.90
2018-07-07T00:34:15.225Z,99.10
2018-07-07T00:36:42.396Z,97.90
2018-07-07T00:39:09.556Z,97.90
2018-07-07T00:41:36.687Z,97.70
2018-07-07T00:46:31.111Z,98.30
2018-07-07T00:48:58.315Z,98.80
2018-07-07T00:51:25.525Z,98.90
2018-07-07T00:53:52.661Z,98.00
2018-07-07T00:56:19.839Z,97.80
2018-07-07T00:58:47.018Z,96.90
2018-07-07T01:01:14.211Z,97.30
2018-07-07T01:03:41.395Z,97.40
2018-07-07T01:06:08.540Z,97.00
2018-07-07T01:08:35.693Z,97.10
2018-07-07T01:11:02.919Z,96.50
2018-07-07T01:13:30.087Z,95.90
2018-07-07T01:15:57.279Z,96.00
2018-07-07T01:18:24.395Z,96.50
2018-07-07T01:20:51.665Z,97.30
2018-07-07T01:23:18.810Z,97.60
2018-07-07T01:25:46.300Z,98.30
2018-07-07T01:28:13.451Z,99.40
2018-07-07T01:30:40.612Z,99.90
2018-07-07T01:33:07.769Z,99.70
2018-07-07T01:35:34.972Z,99.80
2018-07-07T01:38:02.134Z,99.90
2018-07-07T01:40:29.499Z,99.90
2018-07-07T01:42:56.689Z,99.90
2018-07-07T01:45:23.808Z,99.90
2018-07-07T01:47:50.985Z,99.90
2018-07-07T01:50:18.159Z,99.90
2018-07-07T01:52:45.285Z,99.90
2018-07-07T01:55:12.382Z,99.90
2018-07-07T01:57:39.514Z,99.90
2018-07-07T02:00:06.662Z,99.90
2018-07-07T02:02:33.830Z,99.90
2018-07-07T02:05:01.035Z,99.90
2018-07-07T02:07:28.263Z,99.90
2018-07-07T02:09:55.383Z,99.90
2018-07-07T02:12:22.498Z,99.90
2018-07-07T02:14:49.628Z,99.90
2018-07-07T02:17:16.738Z,99.90
2018-07-07T02:19:43.874Z,99.90
2018-07-07T02:22:17.154Z,99.90
2018-07-07T02:24:44.280Z,99.90
2018-07-07T02:27:11.417Z,99.90
2018-07-07T02:29:38.534Z,99.90
2018-07-07T02:32:05.682Z,99.90
2018-07-07T02:34:32.895Z,99.90
2018-07-07T02:37:00.071Z,99.90
2018-07-07T02:39:27.285Z,99.90
2018-07-07T02:41:54.422Z,99.90
2018-07-07T02:44:21.546Z,99.90
2018-07-07T02:46:48.658Z,99.90
2018-07-07T02:49:15.776Z,99.90
2018-07-07T02:51:43.036Z,99.90
2018-07-07T02:54:10.157Z,99.90
2018-07-07T02:56:37.270Z,99.90
2018-07-07T02:59:04.409Z,99.90
2018-07-07T03:01:31.620Z,99.90
2018-07-07T03:03:58.767Z,99.90
2018-07-07T03:06:26.278Z,99.90
2018-07-07T03:08:53.397Z,99.90
2018-07-07T03:11:20.531Z,99.90
2018-07-07T03:13:47.649Z,99.90
2018-07-07T03:16:14.958Z,99.90
2018-07-07T03:18:42.085Z,99.70
2018-07-07T03:21:09.270Z,99.90
2018-07-07T03:23:36.402Z,99.90
2018-07-07T03:26:03.597Z,99.90
2018-07-07T03:28:30.755Z,99.90
2018-07-07T03:30:57.936Z,99.90
2018-07-07T03:33:25.085Z,99.90
2018-07-07T03:35:52.226Z,99.90
2018-07-07T03:38:19.354Z,99.90
2018-07-07T03:40:46.502Z,99.90
2018-07-07T03:43:13.593Z,99.90
2018-07-07T03:45:40.712Z,99.90
2018-07-07T03:48:07.858Z,99.90
2018-07-07T03:50:35.047Z,99.90
2018-07-07T03:53:02.212Z,99.90
2018-07-07T03:55:29.502Z,99.90
2018-07-07T03:57:56.762Z,99.90
2018-07-07T04:00:23.895Z,99.90
2018-07-07T04:02:51.031Z,99.90
2018-07-07T04:05:18.125Z,99.90
2018-07-07T04:07:45.224Z,99.90
2018-07-07T04:10:12.370Z,99.90
2018-07-07T04:12:39.478Z,99.50
2018-07-07T04:15:06.607Z,99.20
2018-07-07T04:17:33.762Z,98.30
2018-07-07T04:20:00.959Z,98.60
2018-07-07T04:22:28.194Z,98.90
2018-07-07T04:24:55.401Z,99.90
2018-07-07T04:27:22.529Z,99.90
2018-07-07T04:29:49.719Z,99.80
2018-07-07T04:32:16.866Z,99.80
2018-07-07T04:34:44.082Z,99.90
2018-07-07T04:37:11.198Z,99.90
2018-07-07T04:39:38.314Z,98.80
2018-07-07T04:42:05.517Z,99.00
2018-07-07T04:44:32.724Z,98.50
2018-07-07T04:46:59.899Z,99.10
2018-07-07T04:49:27.078Z,97.30
2018-07-07T04:51:54.214Z,97.90
2018-07-07T04:54:21.316Z,97.90
2018-07-07T04:56:48.470Z,98.00
2018-07-07T04:59:15.621Z,97.40
2018-07-07T05:01:42.765Z,96.90
2018-07-07T05:04:09.897Z,96.00
2018-07-07T05:06:36.996Z,94.60
2018-07-07T05:09:04.450Z,93.50
2018-07-07T05:11:31.920Z,92.50
2018-07-07T05:13:59.133Z,92.00
2018-07-07T05:16:26.337Z,90.70
2018-07-07T05:18:53.463Z,89.70
2018-07-07T05:21:20.563Z,88.90
2018-07-07T05:23:47.719Z,89.90
2018-07-07T05:28:42.002Z,90.50
2018-07-07T05:31:09.130Z,88.20
2018-07-07T05:33:36.280Z,81.80
2018-07-07T05:36:03.654Z,81.60
2018-07-07T05:38:30.902Z,77.70
2018-07-07T05:40:58.152Z,78.90
2018-07-07T05:43:25.404Z,79.70
2018-07-07T05:45:52.540Z,82.60
2018-07-07T05:48:19.637Z,82.20
2018-07-07T05:50:46.748Z,78.10
2018-07-07T05:53:13.862Z,72.40
2018-07-07T05:55:41.001Z,64.50
2018-07-07T05:58:08.133Z,61.50
2018-07-07T06:00:35.270Z,57.90
2018-07-07T06:03:02.482Z,55.40
2018-07-07T06:05:29.899Z,54.10
2018-07-07T06:07:57.066Z,54.40
2018-07-07T06:10:24.221Z,57.20
2018-07-07T06:12:51.349Z,60.50
2018-07-07T06:15:18.618Z,64.10
2018-07-07T06:17:46.618Z,65.00
2018-07-07T06:20:13.758Z,68.60
2018-07-07T06:22:41.214Z,71.40
2018-07-07T06:25:08.368Z,70.50
2018-07-07T06:27:35.513Z,71.80
2018-07-07T06:30:02.722Z,71.10
2018-07-07T06:32:29.923Z,67.70
2018-07-07T06:34:57.090Z,60.00
2018-07-07T06:37:24.241Z,50.80
2018-07-07T06:39:51.405Z,45.40
2018-07-07T06:42:18.522Z,41.50
2018-07-07T06:44:45.693Z,40.60
2018-07-07T06:47:12.834Z,39.00
2018-07-07T06:49:39.965Z,38.90
2018-07-07T06:52:07.116Z,40.00
2018-07-07T06:54:34.281Z,40.40
2018-07-07T06:57:01.474Z,42.80
2018-07-07T06:59:28.764Z,43.90
2018-07-07T07:01:55.924Z,43.10
2018-07-07T07:04:23.033Z,43.10
2018-07-07T07:06:50.181Z,44.70
2018-07-07T07:09:17.286Z,42.70
2018-07-07T07:11:44.433Z,39.50
2018-07-07T07:14:11.830Z,37.70
2018-07-07T07:16:38.966Z,35.40
2018-07-07T07:19:08.495Z,30.90
2018-07-07T07:21:35.641Z,30.00
2018-07-07T07:24:02.886Z,28.20
2018-07-07T07:26:30.111Z,28.50
2018-07-07T07:28:57.456Z,30.70
2018-07-07T07:31:24.608Z,31.70
2018-07-07T07:36:38.113Z,31.80
2018-07-07T07:39:05.403Z,31.00
2018-07-07T07:41:32.867Z,29.70
2018-07-07T07:44:00.177Z,27.80
2018-07-07T07:46:27.637Z,26.90
2018-07-07T07:48:54.758Z,26.60
2018-07-07T07:51:21.856Z,26.20
2018-07-07T07:53:49.181Z,26.30
2018-07-07T07:56:16.296Z,28.10
2018-07-07T07:58:43.433Z,27.50
2018-07-07T08:01:10.610Z,27.30
2018-07-07T08:03:37.781Z,27.00
2018-07-07T08:06:04.982Z,27.70
2018-07-07T08:08:32.179Z,27.10
2018-07-07T08:10:59.603Z,25.30
2018-07-07T08:13:26.988Z,25.00
2018-07-07T08:15:54.178Z,24.10
2018-07-07T08:18:21.280Z,23.60
2018-07-07T08:20:48.460Z,23.50
2018-07-07T08:23:15.581Z,23.60
2018-07-07T08:25:42.736Z,23.50
2018-07-07T08:28:09.885Z,24.90
2018-07-07T08:30:37.185Z,26.40
2018-07-07T08:33:04.722Z,27.80
2018-07-07T08:35:31.978Z,27.00
2018-07-07T08:37:59.407Z,25.30
2018-07-07T08:40:26.606Z,25.30
2018-07-07T08:42:53.820Z,24.00
2018-07-07T08:45:21.081Z,23.50
2018-07-07T08:47:48.263Z,23.60
2018-07-07T08:50:15.426Z,23.10
2018-07-07T08:52:42.547Z,22.90
2018-07-07T08:55:09.655Z,23.00
2018-07-07T08:57:36.765Z,22.70
2018-07-07T09:00:04.285Z,22.90
2018-07-07T09:02:31.510Z,22.90
2018-07-07T09:04:58.765Z,23.10
2018-07-07T09:07:25.985Z,23.10
2018-07-07T09:12:20.230Z,23.70
2018-07-07T09:14:47.358Z,23.10
2018-07-07T09:17:14.480Z,22.80
2018-07-07T09:19:41.634Z,22.70
2018-07-07T09:22:08.780Z,22.90
2018-07-07T09:24:35.978Z,24.20
2018-07-07T09:29:30.293Z,24.50
2018-07-07T09:31:57.486Z,24.40
2018-07-07T09:34:24.602Z,24.40
2018-07-07T09:36:51.722Z,24.90
2018-07-07T09:39:18.830Z,24.70
2018-07-07T09:41:45.975Z,26.40
2018-07-07T09:44:13.248Z,27.90
2018-07-07T09:46:40.321Z,30.50
2018-07-07T09:49:07.523Z,32.50
2018-07-07T09:51:34.680Z,33.60
2018-07-07T09:54:01.850Z,34.30
2018-07-07T09:56:29.004Z,34.00
2018-07-07T09:58:56.185Z,34.60
2018-07-07T10:01:23.329Z,34.00
2018-07-07T10:03:50.479Z,35.50
2018-07-07T10:06:17.662Z,36.60
2018-07-07T10:08:44.797Z,37.70
2018-07-07T10:11:11.962Z,38.30
2018-07-07T10:13:39.067Z,38.30
2018-07-07T10:16:06.217Z,39.60
2018-07-07T10:18:33.440Z,40.40
2018-07-07T10:21:00.614Z,40.30
2018-07-07T10:23:27.782Z,39.60
2018-07-07T10:25:54.901Z,39.00
2018-07-07T10:28:22.043Z,38.90
2018-07-07T10:30:49.217Z,38.60
2018-07-07T10:33:16.369Z,38.00
2018-07-07T10:35:43.489Z,38.60
2018-07-07T10:38:10.659Z,39.20
2018-07-07T10:40:37.789Z,39.30
2018-07-07T10:43:05.167Z,39.60
2018-07-07T10:45:32.436Z,40.30
2018-07-07T10:47:59.533Z,40.00
2018-07-07T10:50:26.860Z,39.90
2018-07-07T10:53:00.887Z,40.30
2018-07-07T10:55:28.108Z,41.10
2018-07-07T10:57:55.338Z,41.40
2018-07-07T11:00:22.458Z,41.80
2018-07-07T11:02:49.593Z,41.60
2018-07-07T11:05:16.732Z,41.80
2018-07-07T11:07:43.859Z,41.80
2018-07-07T11:10:11.282Z,41.10
2018-07-07T11:12:38.489Z,41.10
2018-07-07T11:15:05.614Z,40.00
2018-07-07T11:17:32.773Z,39.60
2018-07-07T11:20:00.008Z,40.20
2018-07-07T11:22:27.258Z,41.20
2018-07-07T11:24:54.405Z,41.50
2018-07-07T11:27:21.593Z,41.80
2018-07-07T11:29:48.747Z,41.30
2018-07-07T11:32:15.890Z,41.40
2018-07-07T11:34:43.020Z,42.10
2018-07-07T11:37:10.197Z,42.10
2018-07-07T11:39:37.425Z,42.00
2018-07-07T11:42:04.782Z,43.20
2018-07-07T11:44:31.969Z,42.30
2018-07-07T11:46:59.161Z,40.30
2018-07-07T11:49:26.666Z,39.90
2018-07-07T11:51:53.839Z,39.20
2018-07-07T11:54:20.950Z,38.80
2018-07-07T11:56:48.143Z,38.50
2018-07-07T11:59:15.290Z,38.30
2018-07-07T12:01:42.441Z,39.10
2018-07-07T12:04:09.593Z,40.30
2018-07-07T12:06:36.721Z,40.50
2018-07-07T12:09:04.819Z,40.50
2018-07-07T12:11:32.071Z,40.40
2018-07-07T12:13:59.253Z,39.50
2018-07-07T12:16:26.465Z,38.60
2018-07-07T12:18:53.610Z,38.70
2018-07-07T12:21:20.773Z,38.80
2018-07-07T12:23:47.899Z,38.50
2018-07-07T12:26:15.281Z,38.80
2018-07-07T12:28:42.421Z,39.10
2018-07-07T12:31:09.564Z,39.70
2018-07-07T12:33:36.730Z,40.70
2018-07-07T12:36:04.253Z,41.20
2018-07-07T12:38:31.393Z,41.90
2018-07-07T12:40:58.572Z,42.00
2018-07-07T12:43:25.687Z,41.00
2018-07-07T12:45:52.853Z,40.90
2018-07-07T12:48:20.010Z,40.60
2018-07-07T12:50:47.381Z,40.40
2018-07-07T12:53:15.521Z,40.40
2018-07-07T12:55:42.658Z,40.20
2018-07-07T12:58:09.839Z,40.50
2018-07-07T13:00:36.970Z,40.90
2018-07-07T13:03:04.250Z,40.90
2018-07-07T13:05:31.526Z,41.10
2018-07-07T13:07:58.806Z,41.40
2018-07-07T13:10:26.153Z,41.70
2018-07-07T13:12:53.337Z,42.00
2018-07-07T13:15:20.489Z,41.80
2018-07-07T13:17:47.614Z,42.40
2018-07-07T13:20:14.761Z,42.60
2018-07-07T13:22:41.900Z,42.50
2018-07-07T13:25:09.062Z,41.80
2018-07-07T13:27:36.234Z,41.40
2018-07-07T13:30:03.666Z,40.80
2018-07-07T13:32:30.863Z,40.50
2018-07-07T13:34:58.106Z,40.10
2018-07-07T13:37:25.262Z,40.30
2018-07-07T13:39:52.405Z,40.50
2018-07-07T13:42:19.581Z,40.00
2018-07-07T13:44:46.763Z,40.00
2018-07-07T13:47:13.896Z,40.40
2018-07-07T13:49:41.065Z,40.60
2018-07-07T13:52:08.239Z,41.50
2018-07-07T13:54:35.604Z,41.70
2018-07-07T13:57:02.868Z,41.40
2018-07-07T13:59:30.122Z,41.50
2018-07-07T14:01:57.294Z,41.90
2018-07-07T14:04:24.470Z,42.70
2018-07-07T14:06:51.642Z,42.70
2018-07-07T14:09:18.766Z,42.00
2018-07-07T14:11:45.911Z,41.70
2018-07-07T14:14:13.081Z,40.90
2018-07-07T14:16:40.412Z,40.80
2018-07-07T14:19:08.082Z,40.70
2018-07-07T14:21:35.330Z,41.40
2018-07-07T14:24:02.523Z,40.80
2018-07-07T14:26:29.828Z,41.30
2018-07-07T14:28:57.034Z,41.00
2018-07-07T14:31:24.423Z,40.80
2018-07-07T14:33:51.630Z,40.60
2018-07-07T14:36:18.792Z,40.30
2018-07-07T14:38:45.971Z,39.80
2018-07-07T14:41:15.201Z,39.90
2018-07-07T14:43:49.942Z,40.00
2018-07-07T14:46:17.125Z,39.70
2018-07-07T14:48:44.246Z,39.60
2018-07-07T14:51:11.378Z,39.30
2018-07-07T14:53:38.550Z,39.00
2018-07-07T14:56:05.706Z,39.10
2018-07-07T14:58:32.987Z,38.50
2018-07-07T15:01:00.303Z,38.60
2018-07-07T15:03:27.624Z,38.80
2018-07-07T15:05:56.032Z,38.90
2018-07-07T15:08:23.362Z,39.40
2018-07-07T15:10:50.525Z,39.70
2018-07-07T15:13:17.717Z,40.20
2018-07-07T15:15:44.962Z,40.00
2018-07-07T15:18:12.117Z,40.00
2018-07-07T15:20:39.360Z,39.60
2018-07-07T15:23:06.590Z,39.50
2018-07-07T15:25:33.768Z,39.70
2018-07-07T15:28:01.287Z,40.20
2018-07-07T15:30:28.445Z,39.70
2018-07-07T15:32:55.714Z,39.80
2018-07-07T15:35:22.888Z,40.10
2018-07-07T15:37:50.038Z,40.40
2018-07-07T15:40:17.241Z,40.10
2018-07-07T15:42:44.333Z,39.80
2018-07-07T15:45:11.506Z,39.50
2018-07-07T15:47:38.645Z,40.00
2018-07-07T15:50:05.843Z,39.70
2018-07-07T15:55:00.350Z,39.40
2018-07-07T15:57:27.482Z,39.40
2018-07-07T15:59:54.652Z,39.30
2018-07-07T16:02:21.793Z,39.40
2018-07-07T16:04:48.922Z,39.30
2018-07-07T16:07:16.029Z,39.40
2018-07-07T16:09:43.168Z,39.10
2018-07-07T16:12:10.315Z,38.80
2018-07-07T16:14:37.750Z,38.90
2018-07-07T16:17:04.914Z,38.80
2018-07-07T16:19:32.108Z,38.90
2018-07-07T16:21:59.602Z,38.70
2018-07-07T16:24:26.712Z,39.60
2018-07-07T16:26:53.880Z,40.10
2018-07-07T16:29:21.054Z,39.80
2018-07-07T16:31:48.198Z,39.50
2018-07-07T16:34:15.353Z,39.10
2018-07-07T16:36:42.481Z,39.10
2018-07-07T16:39:09.681Z,38.70
2018-07-07T16:41:36.957Z,39.20
2018-07-07T16:44:04.526Z,39.20
2018-07-07T16:46:32.078Z,39.50
2018-07-07T16:48:59.441Z,39.00
2018-07-07T16:51:26.629Z,39.20
2018-07-07T16:53:53.870Z,39.30
2018-07-07T16:56:21.057Z,39.30
2018-07-07T16:58:48.388Z,39.30
2018-07-07T17:01:16.069Z,39.00
2018-07-07T17:03:43.258Z,39.40
2018-07-07T17:06:10.410Z,39.50
2018-07-07T17:08:37.609Z,39.70
2018-07-07T17:11:05.358Z,39.50
2018-07-07T17:13:32.626Z,40.20
2018-07-07T17:15:59.971Z,40.30
2018-07-07T17:18:27.144Z,40.40
2018-07-07T17:20:54.773Z,40.80
2018-07-07T17:23:21.917Z,40.50
2018-07-07T17:25:49.082Z,40.20
2018-07-07T17:28:16.241Z,40.50
2018-07-07T17:30:43.401Z,40.40
2018-07-07T17:33:10.601Z,40.40
2018-07-07T17:35:37.745Z,40.40
2018-07-07T17:38:04.934Z,40.40
2018-07-07T17:40:32.116Z,40.40
2018-07-07T17:43:00.177Z,40.30
2018-07-07T17:45:27.402Z,40.20
2018-07-07T17:47:54.553Z,40.60
2018-07-07T17:50:21.763Z,40.90
2018-07-07T17:52:48.932Z,40.80
2018-07-07T17:55:16.341Z,40.30
2018-07-07T17:57:43.507Z,40.90
2018-07-07T18:00:11.184Z,41.00
2018-07-07T18:02:38.329Z,40.40
2018-07-07T18:05:05.538Z,40.80
2018-07-07T18:07:32.714Z,40.70
2018-07-07T18:12:27.483Z,41.00
2018-07-07T18:14:54.858Z,41.20
2018-07-07T18:17:21.997Z,41.00
2018-07-07T18:19:49.149Z,41.10
2018-07-07T18:22:16.324Z,40.90
2018-07-07T18:24:43.457Z,40.90
2018-07-07T18:27:10.654Z,41.20
2018-07-07T18:29:37.913Z,41.40
2018-07-07T18:32:05.195Z,41.80
2018-07-07T18:34:32.421Z,41.70
2018-07-07T18:37:00.281Z,41.70
2018-07-07T18:39:27.430Z,41.80
2018-07-07T18:41:54.591Z,42.20
2018-07-07T18:44:21.762Z,42.10
2018-07-07T18:46:48.902Z,42.20
2018-07-07T18:49:16.054Z,42.40
2018-07-07T18:51:43.249Z,42.90
2018-07-07T18:54:10.374Z,42.90
2018-07-07T18:56:37.627Z,43.00
2018-07-07T18:59:04.901Z,43.30
2018-07-07T19:01:32.239Z,43.40
2018-07-07T19:03:59.717Z,43.70
2018-07-07T19:06:26.843Z,43.90
2018-07-07T19:08:53.954Z,44.10
2018-07-07T19:11:21.101Z,44.20
2018-07-07T19:13:48.222Z,44.50
2018-07-07T19:16:15.329Z,44.80
2018-07-07T19:18:42.477Z,44.90
2018-07-07T19:21:15.400Z,45.20
2018-07-07T19:23:48.574Z,45.30
2018-07-07T19:26:21.597Z,45.60
2018-07-07T19:28:48.734Z,45.70
2018-07-07T19:31:15.990Z,46.00
2018-07-07T19:33:48.909Z,46.10
2018-07-07T19:36:21.821Z,46.40
2018-07-07T19:38:48.945Z,46.80
2018-07-07T19:41:16.135Z,46.90
2018-07-07T19:43:43.285Z,46.80
2018-07-07T19:46:10.476Z,46.80
2018-07-07T19:48:37.586Z,47.00
2018-07-07T19:51:04.764Z,47.40
2018-07-07T19:53:32.177Z,47.60
2018-07-07T19:55:59.326Z,48.00
2018-07-07T19:58:26.514Z,47.70
2018-07-07T20:00:53.690Z,47.90
2018-07-07T20:03:20.846Z,47.90
2018-07-07T20:05:47.975Z,48.00
2018-07-07T20:08:15.390Z,48.10
2018-07-07T20:10:42.520Z,48.10
2018-07-07T20:15:48.658Z,48.70
2018-07-07T20:18:16.422Z,48.60
2018-07-07T20:21:03.800Z,48.60
2018-07-07T20:23:31.014Z,48.50
2018-07-07T20:26:03.142Z,48.90
2018-07-07T20:28:36.075Z,48.90
2018-07-07T20:31:03.303Z,49.20
2018-07-07T20:33:30.609Z,49.10
2018-07-07T20:35:57.829Z,49.40
2018-07-07T20:38:25.101Z,49.30
2018-07-07T20:40:52.467Z,49.30
2018-07-07T20:43:19.888Z,49.40
2018-07-07T20:48:14.277Z,49.30
2018-07-07T20:50:41.469Z,49.70
2018-07-07T20:53:08.650Z,49.60
2018-07-07T20:55:35.920Z,49.40
2018-07-07T20:58:03.208Z,49.70
2018-07-07T21:00:30.627Z,49.50
2018-07-07T21:05:24.918Z,50.00
2018-07-07T21:07:52.065Z,50.10
2018-07-07T21:10:19.211Z,50.40
2018-07-07T21:12:46.382Z,50.30
2018-07-07T21:15:13.522Z,50.40
2018-07-07T21:17:40.653Z,50.60
2018-07-07T21:20:07.924Z,50.40
2018-07-07T21:22:35.117Z,50.60
2018-07-07T21:25:02.539Z,50.90
2018-07-07T21:27:29.771Z,50.80
2018-07-07T21:29:56.921Z,51.00
2018-07-07T21:34:51.231Z,51.20
2018-07-07T21:37:18.404Z,51.00
2018-07-07T21:39:45.538Z,51.30
2018-07-07T21:44:39.857Z,51.50
2018-07-07T21:47:07.007Z,51.80
2018-07-07T21:49:34.190Z,52.10
2018-07-07T21:52:01.504Z,51.70
2018-07-07T21:54:28.713Z,52.00
2018-07-07T21:56:56.674Z,52.00
2018-07-07T21:59:24.038Z,52.10
2018-07-07T22:01:58.885Z,52.50
2018-07-07T22:04:33.789Z,52.50
2018-07-07T22:07:08.988Z,52.50
2018-07-07T22:09:36.998Z,52.60
2018-07-07T22:12:04.234Z,53.00
2018-07-07T22:14:31.773Z,53.30
2018-07-07T22:16:59.026Z,53.10
2018-07-07T22:19:26.222Z,53.10
2018-07-07T22:22:03.791Z,52.90
2018-07-07T22:24:31.289Z,53.00
2018-07-07T22:27:02.648Z,53.00
2018-07-07T22:29:29.745Z,53.00
2018-07-07T22:31:58.212Z,53.80
2018-07-07T22:34:26.044Z,54.10
2018-07-07T22:36:53.461Z,54.30
2018-07-07T22:39:20.689Z,54.20
2018-07-07T22:42:03.408Z,53.50
2018-07-07T22:44:31.415Z,53.40
2018-07-07T22:46:58.718Z,54.10
2018-07-07T22:49:26.687Z,54.00
2018-07-07T22:51:54.076Z,54.30
2018-07-07T22:54:21.232Z,53.90
2018-07-07T22:56:48.360Z,54.30
2018-07-07T22:59:15.530Z,54.30
2018-07-07T23:01:42.673Z,54.20
2018-07-07T23:04:09.996Z,54.60
2018-07-07T23:06:40.201Z,55.30
2018-07-07T23:09:08.910Z,55.40
2018-07-07T23:11:36.065Z,55.50
2018-07-07T23:14:03.358Z,55.50
2018-07-07T23:16:31.059Z,55.80
2018-07-07T23:18:58.281Z,55.40
2018-07-07T23:21:25.506Z,55.70
2018-07-07T23:23:52.630Z,55.60
2018-07-07T23:26:19.771Z,56.00
2018-07-07T23:28:47.178Z,56.10
2018-07-07T23:31:14.325Z,56.40
2018-07-07T23:33:41.477Z,57.00
2018-07-07T23:36:08.617Z,56.60
2018-07-07T23:38:35.773Z,56.60
2018-07-07T23:41:03.139Z,56.80
2018-07-07T23:43:30.362Z,57.20
2018-07-07T23:48:31.679Z,57.20
2018-07-07T23:50:58.828Z,57.50
2018-07-07T23:53:25.945Z,57.80
2018-07-07T23:55:53.300Z,57.70
2018-07-07T23:58:20.456Z,58.20
